Cannington, Canada
Current Conditions -  °F | °C
As of 11:00 AM on Thursday 29 Jan 2015 (Local Time) from CYOO Reporting Station
Overcast Overcast  
Wind Chill: 21°   Ceiling: 7700
Heat Index: 30°   Visibility: 9mi
Dew Point: 18°   Wind: 10mph
Humidity: 60%   Direction: 110°ESE
Pressure: 29.88"   Gusts: 18mph
Location:  44.35°N, 79.03°W
Report Text: CYOO 291600Z AUTO 11009G16KT 9SM FEW060 BKN077 OVC110 M01/M08 A2988 RMK PRESFR SLP125
Loading
Personal Weather Stations






























Interactive Weather Map New forecast layout! Learn more

10-Day Weather Forecast

Advertisements
Track Severe Weather on mobile